Aeroporto :
LOGIN :

Iscrizione | Disclaimer

   EN    FR    IT 

 










Sommario :    VFR   VFR Marginale   IFR   IFR Intensivo   IFR Molto Intensivo
Visibilità : 
Base nubi : 
>= 8 km
>= 3000ft
5 / 8 km
1000 / 3000 ft
1500m / 5 km
500 / 1000 ft
800 / 1500m
200 / 500 ft
< 800m
< 200 ft
Simboli :   Temporali  Nebbia  Neve Forte  Precipitazioni Forti  Vento > 20 kt
SIGMETs :   Varie  Temporali  Ghiacco  Turbolenza  Onda orograficha  Ceneri Vulcaniche






- Altitudine del aeroporto : 70 ft
- Codice IATA : WBG


ETNS - Schleswig

ULTIMO METAR :
  • 151220Z AUTO 11014KT 5000 // ////// 06/03 Q1007 ///

METARs OBSOLETI :
  • 151120Z 10015KT 8000 OVC010 05/03 Q1007 GRN
  • 151110Z 10016KT 8000 OVC010 05/03 Q1007 GRN FCST CANCEL
  • 151020Z 09017KT 8000 OVC010 05/03 Q1007 GRN GRN TEMPO WHT

TAF AMD TAF ETNS
Valido dal 15 a 09 ore il 15 a 18 ore UTC


151110Z 1509/1518 09015G25KT 9999 NSW BKN010
TEMPO 1509/1515 08020G35KT 7000 NSW BKN015 CANCEL 1110 BY ETGL



MetMap, La meteo Aeronautica in un colpo d'occhio ! - Copyright ORBIFLY Dicembre 2007 - Disclaimer

ORBIFLY MET'MAP TEAM :

Programmazione e sviluppo : Alexandra Zaïnal
Concezione e sviluppo : Baudouin d'Aumeries
Co-Programmazione e sviluppo : Marc-Olivier Méhu
Supporto tecnico e logistico : Manuel Goepfert
Aiuto per la traduzione : Arnaldo La Scala

Contatto : metmap@orbifly.com




FONTI E CREDITI :

   NOAA